ZA-0129 weather

Hondeklip Bay Airstrip
Hondeklip Bay, Northern Cape, South Africa

Public forecast

Using degrees Celsius for public forecast. Weather courtesy of forecast.io.

METAR (pilot weather report)

Report is more than 6 hours old.

Closest report is Springbok Airport, 51.5 nm (95.4 km) NE. Retrieved 2019/08/24 06:32 UTC (12 hours ago):

FASB 240632Z 36003KT CAVOK 22/M06 Q1026

TAF (pilot weather forecast)

Forecast is more than 12 hours old.

Closest forecast is Alexander Bay Airport, 112.9 nm (209.1 km) NNW. Retrieved 2017/07/06 00:54 UTC (2 years ago):

TAF FAAB 062130Z 0700/0806 27012KT 9999 BKN030 SCT080 BECMG 0702/0705 14010KT 8000 -RA/BR BKN030 BKN 080 BECMG0710/0713 9000 -RA BKN025 BKN070